Extreme weather reports worldwide

Thunderstorm

Station
 
Location
 
Name
 
Wind
Knots
Gust
Knots
Vis
SM
Temp/Dew
C
Baro
inHg
METAR
 
K1GM 13 10/5 29.76 K1GM 150255Z AUTO 06013KT 10SM VCTS SCT035 OVC100 11/06 A2976 RMK AO2 PK WND 19031/15 RAE0155RAB13E54 TSB21E41 SLP086 P0026 60026 T01070057 50019 $
AGC KAGC Pittsburgh, US Allegheny County Airport 12 22/7 29.73 KAGC 150308Z 23012KT 10SM VCTS OVC060 23/07 A2973 RMK AO2 LTG DSNT NW-NE T02280072 $
K1IM 12 15/4 29.76 K1IM 150255Z AUTO 29012KT 10SM TS CLR 15/05 A2976 RMK AO2 TSB45 SLP078 T01540047 50017 $
CGR SBCG Campo Grande, BR Campo Grande Airport 11 24/23 29.91 SBCG 150300Z 06011KT 9999 VCTS SCT035 FEW050CB BKN060 BKN100 24/23 Q1013
LBE KLBE Latrobe, US Arnold Palmer Regional Airport 10 22/9 29.74 KLBE 150255Z AUTO 22010KT 10SM VCTS SCT070 BKN085 22/09 A2974 RMK AO2 LTG DSNT NW-NE

Station
 
Location
 
Name
 
Wind
Knots
Gust
Knots
Vis
SM
Temp/Dew
C
Baro
inHg
METAR
 
GFA KGFA Great Falls, US Malmstrom Air Force Base 8 16/4 29.76 KGFA 150258Z AUTO 06008KT 10SM TS FEW120 BKN150 16/04 A2976 RMK AO2 TSB58 SLP077 $
DNA RODN JP Kadena Air Base 8 5 23/22 29.89 RODN 150305Z AUTO 24008KT 5SM -TSRA BR BKN007 BKN012 BKN050 23/22 A2989 RMK AO2 CIG 007V050 BKN007 V SCT SLP127 FZRANO $
ROTM JP Futenma Marine Corps Air Station 8 4.97 23/23 29.95 ROTM 150303Z 24008KT 8000 -TSRA BR SCT011 BKN049 OVC100 23/23 A2995 RMK FRQ LTG OHD SHRAE03TSRAB03 TS OHD MOV E CB OHD MOVG E SLP141 L5 SET T1
ASU SGAS Asunción, PY Silvio Pettirossi International Airport 7 26/24 29.73 SGAS 150300Z 06007KT 9999 VCTS SCT030 FEW040CB BKN070 26/24 Q1007
KFIG Clearfield, US Clearfield Lawrence Airport 7 5 13/12 29.76 KFIG 150254Z AUTO 22007KT 5SM -TSRA BR SCT047 BKN060 OVC075 13/12 A2976 RMK AO2 LTG DSNT SE-SW RAB14E30B49 TSE26B51 SLP083 P0006 6//// T01330122 55001 $
K1OM 7 14/6 29.80 K1OM 150255Z AUTO 08007KT 10SM -TSRA BKN060 OVC075 14/07 A2980 RMK AO2 PK WND 32032/0159 TSB33E48TSB52 SLP092 P0006 60006 T01410069 53027 $
ISB OPIS Islamabad, PK Islamabad International Airport 6 2.49 17/16 29.94 OPIS 150300Z 23006KT 4000 VCTS FEW030CB SCT040 BKN100 17/16 Q1014 TEMPO 23015G35KT 2000 TSRA FEW030CB
AOO KAOO Altoona, US Altoona Blair County Airport 6 7 14/11 29.77 KAOO 150310Z AUTO 16006KT 7SM TSRA BKN070 OVC095 14/12 A2977 RMK AO2 LTG DSNT W-NE TSB04 P0003 T01440117
STM SBSN Santarém, BR Maestro Wilson Fonseca Airport 6 26/25 29.85 SBSN 150300Z 12006KT 9999 -TSRA SCT013 FEW017CB OVC100 26/25 Q1011
JST KJST Johnstown, US John Murtha Johnstown Cambria County Airport 6 13/11 29.78 KJST 150254Z AUTO 01006KT 10SM -TSRA OVC065 14/11 A2978 RMK AO2 LTG DSNT ALQDS TSB0157E15B39 SLP078 P0016 60016 T01390111 50013
AQI OEPA Qaisumah, SA Al Qaisumah/Hafr Al Batin Airport 4 5.59 21/17 29.88 OEPA 150300Z 36004KT 9000 TSRA FEW030CB BKN035 21/17 Q1012 NOSIG
COR SACO Cordoba, AR Ingeniero Ambrosio Taravella Airport 4 4.97 14/14 29.88 SACO 150300Z 30004KT 260V320 8000 -TSRA BKN004 SCT020 FEW050CB 14/14 Q1012 NOSIG
SCE KUNV State College, US University Park Airport 4 7 13/13 29.76 KUNV 150255Z AUTO 17004KT 7SM -TSRA SCT040 SCT070 OVC090 14/14 A2976 RMK AO2 LTG DSNT ALQS P0007 60017 T01380137
KPJC Zelienople, US Zelienople Municipal Airport 3 16/15 29.74 KPJC 150255Z AUTO 33003KT 10SM -TSRA BKN060 OVC070 16/15 A2974 RMK AO2 P0024 LTG DSNT E SE AND NW
BFP KBVI Beaver Falls, US Beaver County Airport 0 19/12 29.75 KBVI 150255Z AUTO 00000KT 10SM VCTS OVC055 19/13 A2975 RMK AO2 LTG DSNT W THRU E T01940129
STQ KOYM St Marys, US St Marys Municipal Airport 0 13/12 29.79 KOYM 150255Z AUTO 00000KT 10SM VCTS SCT050 BKN080 OVC100 13/12 A2979 RMK AO2 LTG DSNT E THRU SW